Bookmark and Share
Track history (hours):
 

Elettra

Last reported at 2014-Apr-18 18:33 UTC. Time now 2014-Apr-20 13:23 UTC.
Position S 32°21' E 152°51'.

Length 254 m; draft 13.5 m.

Type: Ship. MMSI: 371188000.

NotesDate/timePositionNaut miles runAvg speedWind from/ knotsBaromVisibWave heightAir tempDewpointWater temp
2014-Apr-18 18:33S 32°21' E 152°51'10 9.4
2014-Apr-18 17:32S 32°30' E 152°48'9 8.9
2014-Apr-18 16:33S 32°39' E 152°45'8 8.3
2014-Apr-18 15:34S 32°44' E 152°38'10 9.5
2014-Apr-18 14:33S 32°49' E 152°28'1110.9
2014-Apr-18 13:33S 32°54' E 152°17'1111.3
2014-Apr-18 12:33S 32°56' E 152°04'1110.8
2014-Apr-18 11:33S 32°57' E 151°51'4 4.4
2014-Apr-18 10:33S 32°55' E 151°46'2 2.0
2014-Apr-18 09:33S 32°53' E 151°45'0 0.0
2014-Apr-18 08:32S 32°53' E 151°45'0 0.0
2014-Apr-18 04:20S 32°53' E 151°45'0 0.0
2014-Apr-18 03:32S 32°53' E 151°45'0 0.0
2014-Apr-18 02:32S 32°53' E 151°45'0 0.0
2014-Apr-18 01:32S 32°53' E 151°45'0 0.0
2014-Apr-18 00:32S 32°53' E 151°45'0 0.0
2014-Apr-17 23:20S 32°53' E 151°45'0 0.0
2014-Apr-17 21:23S 32°53' E 151°45'0 0.0
2014-Apr-17 20:32S 32°53' E 151°45'0 0.0
2014-Apr-17 19:26S 32°53' E 151°45'0 0.0
2014-Apr-17 18:32S 32°53' E 151°45'0 0.0
2014-Apr-17 16:32S 32°53' E 151°45'0 0.0
2014-Apr-17 15:32S 32°53' E 151°45'0 0.0
2014-Apr-17 14:32S 32°53' E 151°45'0 0.0
2014-Apr-17 13:32S 32°53' E 151°45'0 0.0
2014-Apr-17 12:29S 32°53' E 151°45'0 0.0
2014-Apr-17 11:32S 32°53' E 151°45'0 0.0
2014-Apr-17 10:32S 32°53' E 151°45'0 0.0
2014-Apr-17 09:26S 32°53' E 151°45'0 0.0
2014-Apr-17 08:32S 32°53' E 151°45'0 0.0
2014-Apr-17 07:32S 32°53' E 151°45'0 0.0
2014-Apr-17 06:26S 32°53' E 151°45'0 0.0
2014-Apr-17 05:32S 32°53' E 151°45'0 0.0
2014-Apr-17 04:29S 32°53' E 151°45'0 0.0
2014-Apr-17 03:33S 32°53' E 151°45'3 2.7
2014-Apr-17 02:30S 32°55' E 151°48'8 7.6
2014-Apr-17 01:31S 32°59' E 151°55'6 6.0
2014-Apr-17 00:33S 32°58' E 152°02'8 8.2
2014-Apr-16 23:33S 32°56' E 152°11'7 6.6
2014-Apr-16 22:33S 32°55' E 152°19'1 1.1
2014-Apr-16 21:31S 32°56' E 152°18'1 1.1
2014-Apr-16 20:31S 32°57' E 152°18'1 1.1
2014-Apr-16 19:31S 32°58' E 152°18'1 1.3
2014-Apr-16 18:28S 32°60' E 152°17'1 1.2
2014-Apr-16 17:31S 33°01' E 152°17'1 1.2
2014-Apr-16 16:31S 33°02' E 152°16'1 1.4
2014-Apr-16 15:31S 33°03' E 152°15'1 1.4
2014-Apr-16 14:31S 33°05' E 152°15'2 1.4
2014-Apr-16 13:25S 33°06' E 152°14'1 1.3
2014-Apr-16 12:31S 33°07' E 152°14'1 1.2
2014-Apr-16 11:31S 33°08' E 152°13'1 1.2
2014-Apr-16 10:31S 33°10' E 152°13'1 1.2
2014-Apr-16 09:31S 33°11' E 152°12'1 1.2
2014-Apr-16 08:31S 33°12' E 152°12'1 1.2
2014-Apr-16 07:31S 33°13' E 152°12'1 1.1
2014-Apr-16 06:31S 33°14' E 152°11'1 1.1
2014-Apr-16 05:22S 33°15' E 152°10'1 0.7
2014-Apr-16 04:31S 33°15' E 152°10'1 0.5
2014-Apr-16 02:13S 33°16' E 152°10'2 1.0
2014-Apr-16 00:12S 33°16' E 152°13'811.9
2014-Apr-15 23:33S 33°08' E 152°13'1111.5
2014-Apr-15 22:33S 32°57' E 152°12'4 3.7
2014-Apr-15 21:33S 32°54' E 152°10'2 2.3
2014-Apr-15 20:33S 32°56' E 152°09'2 2.4
2014-Apr-15 19:33S 32°58' E 152°08'3 2.5
2014-Apr-15 18:30S 33°01' E 152°08'2 2.4
2014-Apr-15 17:33S 33°03' E 152°07'2 2.2
2014-Apr-15 16:33S 33°05' E 152°06'2 2.0
2014-Apr-15 15:33S 33°07' E 152°06'2 1.9
2014-Apr-15 14:33S 33°09' E 152°06'2 0.8
2014-Apr-15 12:31S 33°10' E 152°06'3 1.3
2014-Apr-15 10:31S 33°13' E 152°07'1 0.8
2014-Apr-15 09:31S 33°13' E 152°08'2 1.0
2014-Apr-15 07:34S 33°14' E 152°10'1 1.0
2014-Apr-15 06:34S 33°14' E 152°11'1 1.3
2014-Apr-15 05:31S 33°14' E 152°13'14 7.0
2014-Apr-15 03:34S 33°01' E 152°16'1010.0
2014-Apr-15 02:34S 32°51' E 152°15'5 2.4
2014-Apr-15 00:31S 32°55' E 152°15'2 1.8
2014-Apr-14 23:31S 32°57' E 152°14'1 1.3
2014-Apr-14 22:31S 32°58' E 152°14'1 1.0
2014-Apr-14 21:31S 32°59' E 152°15'1 1.2
2014-Apr-14 20:31S 33°00' E 152°16'1 0.8
2014-Apr-14 19:33S 33°00' E 152°17'8 8.2
2014-Apr-14 18:34S 32°54' E 152°10'2 1.6
2014-Apr-14 17:32S 32°55' E 152°10'2 1.5
2014-Apr-14 16:32S 32°57' E 152°10'1 1.4
2014-Apr-14 15:32S 32°58' E 152°11'1 1.1
2014-Apr-14 14:32S 32°59' E 152°12'1 1.1
2014-Apr-14 13:32S 32°60' E 152°13'2 1.0
2014-Apr-14 11:32S 33°01' E 152°15'1 0.9
2014-Apr-14 10:32S 33°01' E 152°16'1 1.1
2014-Apr-14 09:32S 33°01' E 152°17'1 1.2
2014-Apr-14 08:32S 33°00' E 152°18'1 1.2
2014-Apr-14 07:32S 32°60' E 152°20'1 1.2
2014-Apr-14 06:32S 32°59' E 152°21'3 3.3
2014-Apr-14 05:33S 32°59' E 152°17'42 5.8
2014-Apr-13 22:19S 32°27' E 152°48'34911.6
2014-Apr-12 16:15S 26°45' E 154°09'1115.3
2014-Apr-12 15:31S 26°34' E 154°10'  

Dump ship's entire track history

sailing weather and tide predictions

Elettra — H9AK — position and weather